Gold Hill, California
Current Conditions -  °F | °C
As of 1:15 AM on Sunday 21 Dec 2014 (Local Time) from KPVF Reporting Station
Overcast Overcast  
Wind Chill: 46°   Ceiling: 1400
Heat Index: 48°   Visibility: 10mi
Dew Point: 48°   Wind: 6mph
Humidity: 100%   Direction: 150°SSE
Pressure: 30.27"   Gusts: NA
Location:  38.7308°N, 120.774°W
Report Text: KPVF 210915Z AUTO 15005KT 10SM OVC014 09/09 A3027 RMK AO1
Loading
Personal Weather Stations






























Interactive Weather Map New forecast layout! Learn more

10-Day Weather Forecast

Advertisements
Track Severe Weather on mobile